logo
Search for airport 
image banner adimage banner adimage banner ad
image banner ad

SHVI - Villarrica Park Lake

Located in Villarrica, Chile

ICAO - SHVI, IATA -

Data provided by Airmate  

General information

Coordinates: S39°18'7" W72°5'20"
Elevation is 804 feet MSL.
 
View others Airports in Araucanía

Operational data

Special qualification required
Current time UTC:
Current local time:
Weather at : SCQP - La Araucania ( 64 km )
METAR: SCQP 250400Z 10002KT 0900 R01/2000VP2000N FG FEW003 M01/M01 Q1023
TAF: TAF SCQP 250439Z 2506/2606 VRB02KT 0400 FG VV002 TNM03/2510Z TX08/2520Z BECMG 2515/2517 3000 BR BKN005 BECMG 2518/2520 02005KT 9999 NSW BKN030 BKN200 BECMG 2601/2603 01015KT 8000 RA BKN015 OVC020
View NOTAMs / SUP AIP / TFR affecting this airport [VIEW]
Communications frequencies: [VIEW]

Runways:

Airport contact information

Address: Villarrica Chile

Satellite view of SHVI